Time;durP1;ratioP1;P1;durP2;ratioP2;P2;SDS_P1;SDS_P2;PMS_P1;PMS_P2;Temp;Humidity;BMP_temperature;BMP_pressure;BME280_temperature;BME280_humidity;BME280_pressure;Samples;Min_cycle;Max_cycle;Signal;HPM_P1;HPM_P2
2024/04/13 00:02:01;;;;;;;8.10;3.30;;;;;;;8.83;100.00;98539.47;5333405;26;20472;-59
2024/04/13 00:04:28;;;;;;;8.07;3.45;;;;;;;8.70;100.00;98532.25;5334228;26;20774;-58
2024/04/13 00:06:55;;;;;;;4.70;2.70;;;;;;;8.62;100.00;98537.88;5334045;26;20016;-59
2024/04/13 00:09:22;;;;;;;5.82;2.75;;;;;;;8.57;100.00;98530.41;5339423;26;20005;-59
2024/04/13 00:11:49;;;;;;;7.25;3.47;;;;;;;8.62;100.00;98527.88;5329820;26;20009;-60
2024/04/13 00:14:16;;;;;;;7.60;3.45;;;;;;;8.75;100.00;98529.75;5334749;26;20708;-59
2024/04/13 00:16:42;;;;;;;8.27;3.42;;;;;;;8.69;100.00;98523.31;5338241;26;20082;-59
2024/04/13 00:19:11;;;;;;;4.93;2.90;;;;;;;8.74;100.00;98521.84;5334122;26;20012;-60
2024/04/13 00:21:39;;;;;;;8.13;3.78;;;;;;;8.63;100.00;98515.22;5330454;26;20001;-58
2024/04/13 00:24:06;;;;;;;9.02;4.30;;;;;;;8.56;100.00;98516.06;5333359;26;19996;-60
2024/04/13 00:26:34;;;;;;;8.95;4.88;;;;;;;8.58;100.00;98514.00;5324487;26;20016;-59
2024/04/13 00:29:05;;;;;;;7.05;4.28;;;;;;;8.61;100.00;98506.50;5340323;26;20016;-58
2024/04/13 00:31:32;;;;;;;11.27;4.18;;;;;;;8.51;100.00;98506.91;5331623;26;20028;-59
2024/04/13 00:34:01;;;;;;;9.57;4.18;;;;;;;8.39;100.00;98502.16;5339763;26;20483;-59
2024/04/13 00:36:27;;;;;;;8.27;3.78;;;;;;;8.40;100.00;98508.41;5345963;26;20461;-60
2024/04/13 00:38:54;;;;;;;8.65;4.10;;;;;;;8.32;100.00;98501.31;5347051;26;20008;-61
2024/04/13 00:41:21;;;;;;;7.35;3.42;;;;;;;8.27;100.00;98498.44;5346636;26;19997;-59
2024/04/13 00:43:47;;;;;;;6.85;3.30;;;;;;;8.15;100.00;98499.03;5346059;26;20005;-59
2024/04/13 00:46:23;;;;;;;7.45;3.50;;;;;;;8.12;100.00;98493.25;5329517;26;20005;-59
2024/04/13 00:48:52;;;;;;;8.40;3.45;;;;;;;8.11;100.00;98491.59;5343839;26;20009;-60
2024/04/13 00:51:23;;;;;;;7.28;3.95;;;;;;;8.17;100.00;98480.81;5342075;26;20044;-59
2024/04/13 00:53:50;;;;;;;8.13;3.97;;;;;;;8.19;100.00;98492.19;5344788;26;20033;-60
2024/04/13 00:56:18;;;;;;;6.55;3.90;;;;;;;8.23;100.00;98484.53;5341728;26;20019;-60
2024/04/13 00:58:45;;;;;;;7.07;4.18;;;;;;;8.20;100.00;98483.09;5330201;26;20017;-60
2024/04/13 01:01:13;;;;;;;7.35;3.72;;;;;;;8.19;100.00;98481.41;5338858;26;20074;-58
2024/04/13 01:03:43;;;;;;;6.70;3.95;;;;;;;8.23;100.00;98481.00;5320871;26;20025;-60
2024/04/13 01:06:11;;;;;;;7.22;2.95;;;;;;;8.30;100.00;98489.94;5331724;26;20017;-59
2024/04/13 01:08:37;;;;;;;6.32;2.90;;;;;;;8.35;100.00;98478.47;5334660;26;20001;-59
2024/04/13 01:11:04;;;;;;;11.13;3.33;;;;;;;8.32;100.00;98485.13;5342019;26;20161;-58
2024/04/13 01:13:31;;;;;;;5.82;3.10;;;;;;;8.29;100.00;98480.97;5326265;26;20005;-60
2024/04/13 01:15:58;;;;;;;8.75;2.83;;;;;;;8.36;100.00;98478.28;5348109;26;20045;-58
2024/04/13 01:18:25;;;;;;;4.13;2.55;;;;;;;8.51;100.00;98477.22;5338494;26;20515;-59
2024/04/13 01:20:52;;;;;;;7.47;3.00;;;;;;;8.44;100.00;98477.25;5324438;26;20025;-59
2024/04/13 01:23:20;;;;;;;5.35;2.80;;;;;;;8.27;100.00;98477.69;5312075;26;20019;-59
2024/04/13 01:25:46;;;;;;;5.47;2.70;;;;;;;8.36;100.00;98475.56;5334838;26;20016;-58
2024/04/13 01:28:13;;;;;;;4.65;2.30;;;;;;;8.45;100.00;98479.72;5311363;26;20001;-59
2024/04/13 01:30:40;;;;;;;5.85;2.20;;;;;;;8.49;100.00;98485.53;5341825;26;20031;-58
2024/04/13 01:33:07;;;;;;;5.88;2.60;;;;;;;8.53;100.00;98484.09;5338894;26;20015;-60
2024/04/13 01:35:34;;;;;;;5.47;2.72;;;;;;;8.62;100.00;98482.00;5328525;26;20194;-59
2024/04/13 01:38:01;;;;;;;4.93;2.95;;;;;;;8.29;100.00;98478.28;5340240;26;20028;-60
2024/04/13 01:40:27;;;;;;;6.82;3.05;;;;;;;8.21;100.00;98481.19;5344888;26;20746;-59
2024/04/13 01:42:54;;;;;;;4.65;2.50;;;;;;;8.19;100.00;98481.41;5337396;26;19997;-58
2024/04/13 01:45:20;;;;;;;5.63;2.55;;;;;;;8.16;100.00;98479.16;5337470;26;20008;-59
2024/04/13 01:47:47;;;;;;;5.68;2.65;;;;;;;8.28;100.00;98486.59;5328636;26;20720;-59
2024/04/13 01:50:14;;;;;;;5.00;2.30;;;;;;;8.28;100.00;98483.88;5335764;26;20020;-60
2024/04/13 01:52:41;;;;;;;6.38;2.67;;;;;;;8.31;100.00;98483.47;5337602;26;20000;-60
2024/04/13 01:55:08;;;;;;;9.07;2.80;;;;;;;8.38;100.00;98480.78;5341349;26;20004;-59
2024/04/13 01:57:34;;;;;;;4.50;2.28;;;;;;;8.28;100.00;98481.19;5337836;26;20001;-59
2024/04/13 02:00:01;;;;;;;7.80;2.72;;;;;;;8.23;100.00;98489.09;5329137;26;20437;-60
2024/04/13 02:02:30;;;;;;;3.75;2.05;;;;;;;8.36;100.00;98489.06;5339459;26;20001;-63
2024/04/13 02:04:57;;;;;;;5.32;2.22;;;;;;;8.40;100.00;98489.50;5343363;26;20079;-59
2024/04/13 02:07:24;;;;;;;4.63;2.63;;;;;;;8.43;100.00;98491.75;5344464;26;20009;-60
2024/04/13 02:09:51;;;;;;;4.18;2.72;;;;;;;8.41;100.00;98486.56;5348484;26;20001;-60
2024/04/13 02:12:18;;;;;;;6.57;3.28;;;;;;;8.16;100.00;98491.78;5341478;26;20091;-60
2024/04/13 02:14:45;;;;;;;4.60;2.67;;;;;;;8.12;100.00;98491.41;5343174;26;20025;-60
2024/04/13 02:17:11;;;;;;;5.40;2.60;;;;;;;7.98;100.00;98495.13;5328836;26;20407;-60
2024/04/13 02:19:39;;;;;;;4.57;2.35;;;;;;;7.87;100.00;98496.56;5344143;26;20005;-59
2024/04/13 02:22:06;;;;;;;8.60;3.20;;;;;;;7.92;100.00;98497.59;5337018;26;20015;-60
2024/04/13 02:24:32;;;;;;;4.35;2.58;;;;;;;7.99;100.00;98491.41;5340428;26;20012;-59
2024/04/13 02:27:00;;;;;;;5.22;2.85;;;;;;;7.80;100.00;98485.78;5341136;26;20019;-61
2024/04/13 02:29:27;;;;;;;5.22;2.55;;;;;;;7.71;100.00;98484.31;5319423;26;20032;-59
2024/04/13 02:31:53;;;;;;;4.40;2.70;;;;;;;7.62;100.00;98486.38;5334536;26;20393;-60
2024/04/13 02:34:20;;;;;;;4.40;2.35;;;;;;;7.70;100.00;98472.69;5339919;26;20395;-60
2024/04/13 02:36:47;;;;;;;5.05;2.67;;;;;;;7.76;100.00;98476.44;5340499;26;20494;-59
2024/04/13 02:39:18;;;;;;;5.75;2.40;;;;;;;7.89;100.00;98476.44;5347771;26;20460;-60
2024/04/13 02:41:44;;;;;;;4.27;2.23;;;;;;;8.09;100.00;98483.72;5335860;26;20015;-60
2024/04/13 02:44:11;;;;;;;5.40;2.88;;;;;;;8.03;100.00;98484.53;5323152;26;20013;-60
2024/04/13 02:46:37;;;;;;;7.03;3.03;;;;;;;7.91;100.00;98482.47;5332473;26;20001;-60
2024/04/13 02:49:04;;;;;;;4.78;2.75;;;;;;;7.88;100.00;98477.47;5338319;26;20008;-60
2024/04/13 02:51:31;;;;;;;5.32;2.60;;;;;;;7.82;100.00;98481.03;5329979;26;20060;-60
2024/04/13 02:53:58;;;;;;;7.15;2.92;;;;;;;7.89;100.00;98479.13;5320785;26;20017;-61
2024/04/13 02:56:25;;;;;;;5.25;2.35;;;;;;;7.99;100.00;98480.59;5335128;26;20005;-60
2024/04/13 02:58:51;;;;;;;5.60;2.60;;;;;;;8.02;100.00;98483.72;5346489;26;20005;-60
2024/04/13 03:01:18;;;;;;;5.35;2.58;;;;;;;8.02;100.00;98488.25;5331661;26;20016;-61
2024/04/13 03:03:45;;;;;;;6.93;2.97;;;;;;;8.05;100.00;98485.16;5346711;26;20607;-59
2024/04/13 03:06:13;;;;;;;5.32;2.33;;;;;;;8.09;100.00;98486.41;5342554;26;20063;-59
2024/04/13 03:08:41;;;;;;;6.07;2.70;;;;;;;7.98;100.00;98487.03;5336882;26;20001;-59
2024/04/13 03:11:08;;;;;;;5.47;2.70;;;;;;;7.97;100.00;98485.38;5346838;26;20156;-61
2024/04/13 03:13:37;;;;;;;4.93;2.47;;;;;;;8.01;100.00;98478.53;5339840;26;20005;-60
2024/04/13 03:16:12;;;;;;;8.13;3.17;;;;;;;8.09;100.00;98483.72;5333266;26;20001;-59
2024/04/13 03:18:41;;;;;;;6.93;2.80;;;;;;;8.12;100.00;98477.91;5347028;26;20033;-62
2024/04/13 03:21:08;;;;;;;4.53;2.92;;;;;;;8.16;100.00;98481.00;5334444;26;20020;-62
2024/04/13 03:23:37;;;;;;;5.22;2.92;;;;;;;8.04;100.00;98480.81;5323664;26;20001;-61
2024/04/13 03:26:04;;;;;;;8.68;3.50;;;;;;;7.94;100.00;98478.53;5344789;26;20032;-61
2024/04/13 03:28:34;;;;;;;5.85;2.55;;;;;;;7.95;100.00;98469.38;5336362;26;20005;-60
2024/04/13 03:31:02;;;;;;;7.20;2.80;;;;;;;7.96;100.00;98475.63;5341197;26;20058;-62
2024/04/13 03:33:29;;;;;;;5.30;2.45;;;;;;;7.84;100.00;98476.22;5346521;26;20012;-61
2024/04/13 03:36:01;;;;;;;5.35;2.65;;;;;;;7.68;100.00;98478.28;5343074;26;20078;-60
2024/04/13 03:38:27;;;;;;;4.57;2.42;;;;;;;7.69;100.00;98476.44;5348391;26;20013;-61
2024/04/13 03:41:01;;;;;;;4.50;2.65;;;;;;;7.62;100.00;98471.03;5340905;26;20052;-60
2024/04/13 03:43:28;;;;;;;8.40;3.75;;;;;;;7.64;100.00;98468.13;5331678;26;20001;-61
2024/04/13 03:45:55;;;;;;;4.72;2.47;;;;;;;7.72;100.00;98476.03;5344466;26;20001;-61
2024/04/13 03:48:21;;;;;;;8.15;2.80;;;;;;;7.61;100.00;98473.94;5347274;26;20012;-61
2024/04/13 03:50:48;;;;;;;7.72;2.97;;;;;;;7.46;100.00;98468.72;5333944;26;20000;-61
2024/04/13 03:53:15;;;;;;;5.03;2.88;;;;;;;7.53;100.00;98464.19;5342123;26;20005;-61
2024/04/13 03:55:41;;;;;;;7.40;2.60;;;;;;;7.63;100.00;98474.56;5338085;26;20001;-59
2024/04/13 03:58:10;;;;;;;5.60;2.90;;;;;;;7.59;100.00;98476.03;5338816;26;20015;-60
2024/04/13 04:00:36;;;;;;;5.25;2.80;;;;;;;7.50;100.00;98472.66;5339720;26;20037;-60
2024/04/13 04:03:04;;;;;;;8.40;2.72;;;;;;;7.46;100.00;98474.13;5337448;26;20004;-60
2024/04/13 04:05:30;;;;;;;7.20;2.95;;;;;;;7.50;100.00;98475.38;5338512;26;20016;-59
2024/04/13 04:07:57;;;;;;;6.30;2.72;;;;;;;7.50;100.00;98475.38;5329085;26;20087;-60
2024/04/13 04:10:23;;;;;;;5.38;2.53;;;;;;;7.58;100.00;98472.47;5336278;26;19997;-60
2024/04/13 04:12:50;;;;;;;11.50;2.85;;;;;;;7.66;100.00;98471.44;5335009;26;20580;-59
2024/04/13 04:15:17;;;;;;;7.25;2.60;;;;;;;7.68;100.00;98467.50;5321371;26;20012;-60
2024/04/13 04:17:44;;;;;;;5.13;3.17;;;;;;;7.66;100.00;98458.81;5342049;26;19997;-61
2024/04/13 04:20:13;;;;;;;6.68;3.17;;;;;;;7.66;100.00;98464.19;5346144;26;20020;-60
2024/04/13 04:22:39;;;;;;;5.28;3.17;;;;;;;7.57;100.00;98470.81;5346919;26;20049;-61
2024/04/13 04:25:07;;;;;;;6.40;2.95;;;;;;;7.52;100.00;98470.63;5343747;26;20008;-60
2024/04/13 04:27:34;;;;;;;6.20;2.63;;;;;;;7.55;100.00;98471.03;5344814;26;20037;-61
2024/04/13 04:30:00;;;;;;;5.53;2.92;;;;;;;7.41;100.00;98475.56;5351795;26;20001;-61
2024/04/13 04:32:27;;;;;;;7.35;3.08;;;;;;;7.48;100.00;98480.97;5337770;26;20001;-60
2024/04/13 04:34:54;;;;;;;6.22;2.97;;;;;;;7.44;100.00;98481.59;5330582;26;20049;-61
2024/04/13 04:37:20;;;;;;;4.38;2.55;;;;;;;7.03;100.00;98468.00;5338370;26;20033;-59
2024/04/13 04:39:47;;;;;;;5.93;2.75;;;;;;;6.96;100.00;98459.88;5344659;26;20013;-61
2024/04/13 04:42:15;;;;;;;6.65;2.85;;;;;;;6.85;100.00;98463.16;5339073;26;20016;-61
2024/04/13 04:44:42;;;;;;;6.20;2.75;;;;;;;6.74;100.00;98457.31;5339862;26;20164;-59
2024/04/13 04:47:08;;;;;;;7.57;3.65;;;;;;;6.72;100.00;98462.09;5347412;26;20019;-61
2024/04/13 04:49:35;;;;;;;7.45;3.72;;;;;;;6.79;100.00;98462.13;5336780;26;20033;-59
2024/04/13 04:52:02;;;;;;;5.63;2.95;;;;;;;6.83;100.00;98468.75;5339880;26;21728;-61
2024/04/13 04:54:29;;;;;;;6.22;2.83;;;;;;;6.92;100.00;98471.28;5343268;26;20001;-60
2024/04/13 04:56:55;;;;;;;6.07;2.97;;;;;;;6.94;100.00;98470.03;5329306;26;20521;-59
2024/04/13 04:59:22;;;;;;;6.35;2.78;;;;;;;6.99;100.00;98472.97;5334941;26;20000;-60
2024/04/13 05:01:48;;;;;;;7.25;3.03;;;;;;;7.09;100.00;98474.44;5339606;26;20029;-59
2024/04/13 05:04:16;;;;;;;7.45;2.75;;;;;;;7.15;100.00;98479.03;5345555;26;20056;-60
2024/04/13 05:06:43;;;;;;;6.53;2.88;;;;;;;7.03;100.00;98478.75;5341560;26;20020;-60
2024/04/13 05:09:10;;;;;;;5.97;2.88;;;;;;;7.02;100.00;98469.88;5321741;26;20016;-60
2024/04/13 05:11:37;;;;;;;7.43;3.28;;;;;;;7.10;100.00;98471.53;5343050;26;20040;-61
2024/04/13 05:14:03;;;;;;;5.97;2.80;;;;;;;7.13;100.00;98467.63;5348143;26;20036;-60
2024/04/13 05:16:31;;;;;;;6.30;3.53;;;;;;;7.23;100.00;98469.94;5339314;26;20009;-60
2024/04/13 05:18:58;;;;;;;5.20;2.85;;;;;;;7.25;100.00;98468.69;5343713;26;20020;-60
2024/04/13 05:21:26;;;;;;;7.80;3.42;;;;;;;7.30;100.00;98470.78;5339178;26;20472;-61
2024/04/13 05:23:52;;;;;;;6.20;3.10;;;;;;;7.31;100.00;98464.34;5345636;26;20020;-60
2024/04/13 05:26:20;;;;;;;6.72;3.40;;;;;;;7.32;100.00;98463.31;5354549;26;20001;-60
2024/04/13 05:28:47;;;;;;;6.45;3.20;;;;;;;7.38;100.00;98475.97;5348490;26;20086;-61
2024/04/13 05:31:14;;;;;;;5.32;2.97;;;;;;;7.45;100.00;98472.47;5332366;26;20055;-58
2024/04/13 05:33:40;;;;;;;6.13;3.47;;;;;;;7.38;100.00;98470.56;5341974;26;20001;-59
2024/04/13 05:36:07;;;;;;;6.78;2.92;;;;;;;7.34;100.00;98469.31;5336256;26;20000;-60
2024/04/13 05:38:34;;;;;;;5.63;4.03;;;;;;;7.26;100.00;98464.13;5326555;26;20022;-59
2024/04/13 05:41:01;;;;;;;7.35;3.80;;;;;;;7.20;100.00;98465.78;5342949;26;20004;-59
2024/04/13 05:43:28;;;;;;;7.72;3.60;;;;;;;7.27;100.00;98468.50;5345083;26;20020;-60
2024/04/13 05:45:55;;;;;;;8.32;3.58;;;;;;;7.40;100.00;98476.59;5339518;26;20013;-59
2024/04/13 05:48:21;;;;;;;7.25;3.17;;;;;;;7.51;100.00;98474.31;5344958;26;20013;-59
2024/04/13 05:50:55;;;;;;;6.68;3.42;;;;;;;7.61;100.00;98480.16;5336874;26;19997;-59
2024/04/13 05:53:26;;;;;;;5.18;3.10;;;;;;;7.70;100.00;98486.16;5333767;26;20041;-59
2024/04/13 05:55:52;;;;;;;4.15;2.70;;;;;;;7.83;100.00;98487.22;5331019;26;20005;-59
2024/04/13 05:58:19;;;;;;;6.85;3.10;;;;;;;7.96;100.00;98489.09;5322848;26;20783;-59
2024/04/13 06:00:46;;;;;;;4.95;3.05;;;;;;;8.10;100.00;98495.34;5332742;26;19997;-59
2024/04/13 06:03:14;;;;;;;4.93;2.70;;;;;;;8.27;100.00;98490.34;5334864;26;20051;-59
2024/04/13 06:05:42;;;;;;;4.75;2.85;;;;;;;8.48;100.00;98486.59;5331958;26;20331;-59
2024/04/13 06:08:09;;;;;;;5.22;2.88;;;;;;;8.72;100.00;98486.94;5334907;26;20026;-59
2024/04/13 06:10:36;;;;;;;5.35;2.80;;;;;;;8.88;100.00;98488.34;5339858;26;20016;-56
2024/04/13 06:13:03;;;;;;;7.65;2.80;;;;;;;9.01;100.00;98490.19;5333943;26;20017;-52
2024/04/13 06:15:30;;;;;;;8.95;3.13;;;;;;;9.16;100.00;98498.00;5315179;26;20009;-52
2024/04/13 06:17:57;;;;;;;6.18;3.08;;;;;;;9.29;100.00;98496.28;5334079;26;20086;-53
2024/04/13 06:20:24;;;;;;;5.82;2.75;;;;;;;9.48;100.00;98498.03;5329513;26;19997;-52
2024/04/13 06:22:51;;;;;;;6.50;2.80;;;;;;;9.68;100.00;98505.22;5339252;26;20019;-50
2024/04/13 06:25:17;;;;;;;6.25;2.80;;;;;;;9.84;100.00;98497.63;5324602;26;20013;-53
2024/04/13 06:27:44;;;;;;;8.60;2.95;;;;;;;10.01;100.00;98500.59;5330488;26;20505;-54
2024/04/13 06:30:13;;;;;;;6.97;2.45;;;;;;;10.16;100.00;98502.97;5339927;26;19996;-52
2024/04/13 06:32:40;;;;;;;8.05;3.35;;;;;;;10.29;100.00;98510.19;5332884;26;20642;-55
2024/04/13 06:35:10;;;;;;;7.15;3.05;;;;;;;10.45;100.00;98507.97;5329690;26;20381;-52
2024/04/13 06:37:36;;;;;;;6.20;3.30;;;;;;;10.62;100.00;98506.31;5331571;26;20013;-54
2024/04/13 06:40:04;;;;;;;7.25;4.28;;;;;;;10.82;100.00;98509.88;5338191;26;22723;-50
2024/04/13 06:42:31;;;;;;;10.93;7.20;;;;;;;10.97;100.00;98507.63;5337212;26;20472;-51
2024/04/13 06:44:59;;;;;;;10.40;4.15;;;;;;;11.12;100.00;98504.53;5325159;26;20009;-52
2024/04/13 06:47:27;;;;;;;6.38;3.38;;;;;;;11.32;100.00;98503.47;5326121;26;20013;-60
2024/04/13 06:49:53;;;;;;;8.35;4.28;;;;;;;11.52;100.00;98505.06;5336345;26;20013;-60
2024/04/13 06:52:20;;;;;;;11.27;5.93;;;;;;;11.65;100.00;98504.84;5343135;26;20025;-60
2024/04/13 06:54:47;;;;;;;7.75;4.93;;;;;;;11.82;100.00;98505.03;5338681;26;20005;-60
2024/04/13 06:57:13;;;;;;;10.77;6.05;;;;;;;12.00;100.00;98511.44;5353398;26;20012;-60
2024/04/13 06:59:40;;;;;;;10.50;6.32;;;;;;;12.20;100.00;98513.06;5342910;26;20023;-60
2024/04/13 07:02:07;;;;;;;10.57;5.97;;;;;;;12.35;100.00;98513.41;5335036;26;20005;-60
2024/04/13 07:04:33;;;;;;;7.32;3.78;;;;;;;12.57;100.00;98512.81;5342430;26;20098;-62
2024/04/13 07:07:00;;;;;;;7.47;3.33;;;;;;;12.73;100.00;98513.16;5332649;26;20018;-60
2024/04/13 07:09:27;;;;;;;7.30;3.35;;;;;;;13.00;100.00;98513.47;5333003;26;20016;-60
2024/04/13 07:11:53;;;;;;;4.95;2.28;;;;;;;13.23;100.00;98506.31;5340227;26;19996;-60
2024/04/13 07:14:20;;;;;;;4.38;2.05;;;;;;;13.52;100.00;98511.81;5342665;26;20020;-60
2024/04/13 07:16:47;;;;;;;7.18;2.10;;;;;;;13.69;100.00;98502.88;5345147;26;20011;-61
2024/04/13 07:19:14;;;;;;;5.70;2.10;;;;;;;13.84;100.00;98513.19;5326451;26;20021;-60
2024/04/13 07:21:40;;;;;;;4.90;1.85;;;;;;;13.94;100.00;98515.28;5338918;26;20103;-59
2024/04/13 07:24:07;;;;;;;5.63;2.10;;;;;;;14.08;100.00;98510.31;5334246;26;20023;-59
2024/04/13 07:26:34;;;;;;;6.00;2.00;;;;;;;14.20;100.00;98514.88;5338078;26;20004;-59
2024/04/13 07:29:02;;;;;;;5.35;1.98;;;;;;;14.28;100.00;98509.84;5339362;26;20000;-61
2024/04/13 07:31:29;;;;;;;4.30;1.77;;;;;;;14.43;100.00;98511.16;5348706;26;20011;-60
2024/04/13 07:33:55;;;;;;;7.10;2.80;;;;;;;14.53;100.00;98515.94;5344369;26;20044;-60
2024/04/13 07:36:22;;;;;;;3.30;1.90;;;;;;;14.63;100.00;98516.06;5343491;26;20001;-58
2024/04/13 07:38:49;;;;;;;5.22;2.60;;;;;;;14.70;100.00;98502.25;5334530;26;20772;-61
2024/04/13 07:41:15;;;;;;;8.38;3.80;;;;;;;14.83;100.00;98507.38;5337408;26;20058;-60
2024/04/13 07:43:42;;;;;;;5.03;3.15;;;;;;;14.85;100.00;98506.31;5331445;26;20735;-61
2024/04/13 07:46:09;;;;;;;6.00;2.03;;;;;;;14.89;100.00;98502.00;5329034;26;20015;-59
2024/04/13 07:48:35;;;;;;;5.35;2.10;;;;;;;14.91;100.00;98497.94;5323358;26;20074;-60
2024/04/13 07:51:03;;;;;;;4.60;2.20;;;;;;;14.96;100.00;98499.91;5327014;26;20001;-60
2024/04/13 07:53:30;;;;;;;4.45;2.70;;;;;;;15.08;100.00;98506.06;5321793;26;20014;-60
2024/04/13 07:55:57;;;;;;;6.38;2.38;;;;;;;15.24;100.00;98497.25;5331832;26;20009;-59
2024/04/13 07:58:24;;;;;;;5.50;1.75;;;;;;;15.32;100.00;98499.53;5336343;26;20463;-60
2024/04/13 08:00:50;;;;;;;6.57;2.38;;;;;;;15.43;100.00;98506.75;5323645;26;20031;-59
2024/04/13 08:03:18;;;;;;;3.80;2.03;;;;;;;15.54;100.00;98495.94;5330551;26;20068;-60
2024/04/13 08:05:46;;;;;;;7.07;1.98;;;;;;;15.63;100.00;98499.03;5333633;26;20065;-59
2024/04/13 08:08:13;;;;;;;6.65;2.40;;;;;;;15.71;100.00;98493.91;5320184;26;20713;-59
2024/04/13 08:10:42;;;;;;;3.35;1.70;;;;;;;15.77;100.00;98480.34;5324501;26;20012;-59
2024/04/13 08:13:10;;;;;;;6.72;2.55;;;;;;;15.89;100.00;98485.63;5333019;26;20070;-60
2024/04/13 08:15:39;;;;;;;5.18;2.10;;;;;;;16.00;100.00;98484.66;5342670;26;20080;-60
2024/04/13 08:18:07;;;;;;;4.30;1.80;;;;;;;16.15;100.00;98473.03;5333473;26;20011;-60
2024/04/13 08:20:34;;;;;;;6.07;2.00;;;;;;;16.30;100.00;98479.69;5341952;26;20009;-59
2024/04/13 08:23:01;;;;;;;5.20;2.25;;;;;;;16.41;100.00;98478.69;5343613;26;20005;-60
2024/04/13 08:25:28;;;;;;;3.55;2.28;;;;;;;16.44;100.00;98472.66;5335144;26;20024;-62
2024/04/13 08:27:55;;;;;;;4.18;2.10;;;;;;;16.47;100.00;98474.09;5341304;26;20036;-61
2024/04/13 08:30:22;;;;;;;5.70;1.90;;;;;;;16.53;100.00;98467.53;5346833;26;19997;-61
2024/04/13 08:32:49;;;;;;;5.15;2.03;;;;;;;16.58;100.00;98458.56;5340485;26;20693;-61
2024/04/13 08:35:16;;;;;;;4.70;2.10;;;;;;;16.77;100.00;98467.13;5332554;26;20756;-61
2024/04/13 08:37:46;;;;;;;5.07;2.03;;;;;;;16.88;100.00;98460.59;5326517;26;20037;-61
2024/04/13 08:40:13;;;;;;;3.80;2.05;;;;;;;17.00;100.00;98463.13;5338227;26;20000;-62
2024/04/13 08:42:41;;;;;;;4.63;1.90;;;;;;;17.14;100.00;98465.41;5341757;26;20075;-62
2024/04/13 08:45:09;;;;;;;6.13;1.77;;;;;;;17.23;100.00;98461.06;5344604;26;20045;-62
2024/04/13 08:47:38;;;;;;;4.20;1.90;;;;;;;17.28;100.00;98463.81;5354117;26;20005;-61
2024/04/13 08:50:07;;;;;;;4.32;2.00;;;;;;;17.29;100.00;98454.50;5343516;26;20019;-62
2024/04/13 08:52:39;;;;;;;3.28;1.40;;;;;;;17.32;100.00;98452.31;5335979;26;20005;-61
2024/04/13 08:55:06;;;;;;;4.15;1.63;;;;;;;17.41;100.00;98447.97;5353140;26;20059;-61
2024/04/13 08:57:37;;;;;;;5.05;1.83;;;;;;;17.50;100.00;98453.72;5342652;26;19997;-62
2024/04/13 09:00:08;;;;;;;4.13;1.50;;;;;;;17.58;100.00;98446.91;5348262;26;20004;-62
2024/04/13 09:02:37;;;;;;;4.80;1.70;;;;;;;17.57;100.00;98437.84;5338161;26;20517;-59
2024/04/13 09:05:07;;;;;;;6.70;2.05;;;;;;;17.61;100.00;98441.69;5341645;26;20235;-62
2024/04/13 09:07:34;;;;;;;4.53;1.85;;;;;;;17.66;100.00;98435.41;5337830;26;20096;-62
2024/04/13 09:10:04;;;;;;;4.55;1.90;;;;;;;17.76;100.00;98435.41;5334840;26;20073;-61
2024/04/13 09:12:31;;;;;;;4.78;2.35;;;;;;;17.94;100.00;98430.47;5339831;26;20013;-61
2024/04/13 09:14:58;;;;;;;8.02;1.75;;;;;;;18.14;100.00;98439.81;5336728;26;20617;-62
2024/04/13 09:17:24;;;;;;;3.15;1.67;;;;;;;18.35;98.50;98428.81;5325174;26;20005;-60
2024/04/13 09:19:52;;;;;;;5.10;1.98;;;;;;;18.60;99.46;98433.41;5342886;26;20017;-60
2024/04/13 09:22:20;;;;;;;3.95;1.75;;;;;;;18.65;95.85;98430.63;5334413;26;20052;-60
2024/04/13 09:24:46;;;;;;;4.50;2.22;;;;;;;18.79;95.46;98430.88;5336763;26;20075;-59
2024/04/13 09:27:17;;;;;;;5.35;2.35;;;;;;;18.82;94.92;98434.97;5336310;26;20044;-60
2024/04/13 09:29:44;;;;;;;5.50;1.73;;;;;;;18.78;94.30;98425.66;5324933;26;20070;-60
2024/04/13 09:32:24;;;;;;;3.63;1.60;;;;;;;18.73;94.13;98423.78;5330265;26;20029;-62
2024/04/13 09:34:51;;;;;;;3.95;1.98;;;;;;;18.72;95.94;98422.13;5333019;26;20087;-60
2024/04/13 09:37:18;;;;;;;4.13;1.63;;;;;;;18.82;95.04;98415.78;5346078;26;20000;-59
2024/04/13 09:39:45;;;;;;;5.30;1.63;;;;;;;18.89;93.98;98421.78;5344601;26;20012;-60
2024/04/13 09:42:12;;;;;;;4.60;1.83;;;;;;;19.03;92.89;98412.94;5334632;26;20000;-60
2024/04/13 09:44:40;;;;;;;4.57;2.08;;;;;;;19.09;91.04;98409.91;5345862;26;20012;-60
2024/04/13 09:47:06;;;;;;;4.72;1.52;;;;;;;19.17;91.06;98413.19;5332929;26;20533;-60
2024/04/13 09:49:33;;;;;;;4.45;1.23;;;;;;;19.19;91.52;98416.44;5347351;26;20016;-59
2024/04/13 09:52:00;;;;;;;5.85;2.67;;;;;;;19.11;91.00;98406.88;5336789;26;20005;-59
2024/04/13 09:54:29;;;;;;;6.13;1.80;;;;;;;19.21;90.46;98406.81;5342716;26;20007;-58
2024/04/13 09:56:58;;;;;;;4.22;1.40;;;;;;;19.27;92.68;98404.88;5335119;26;20577;-60
2024/04/13 09:59:28;;;;;;;5.40;1.63;;;;;;;19.41;91.36;98396.00;5335261;26;20607;-60
2024/04/13 10:01:55;;;;;;;3.33;1.70;;;;;;;19.59;89.81;98394.50;5336579;26;20001;-59
2024/04/13 10:04:22;;;;;;;3.92;1.77;;;;;;;19.70;87.44;98397.97;5342926;26;20060;-58
2024/04/13 10:06:50;;;;;;;3.22;1.50;;;;;;;19.81;83.86;98390.47;5331758;26;20024;-60
2024/04/13 10:09:19;;;;;;;4.78;1.63;;;;;;;19.91;83.38;98379.41;5329515;26;20025;-63
2024/04/13 10:11:49;;;;;;;4.90;1.35;;;;;;;20.10;81.63;98379.53;5347094;26;20016;-59
2024/04/13 10:14:20;;;;;;;4.35;1.70;;;;;;;20.21;80.07;98376.66;5334879;26;20004;-60
2024/04/13 10:16:49;;;;;;;9.77;2.70;;;;;;;20.36;78.33;98378.41;5335519;26;20005;-59
2024/04/13 10:19:19;;;;;;;5.00;2.00;;;;;;;20.35;76.35;98376.78;5334606;26;20001;-60
2024/04/13 10:21:56;;;;;;;3.80;1.52;;;;;;;20.39;75.65;98378.66;5331213;26;20005;-60
2024/04/13 10:24:22;;;;;;;6.05;1.55;;;;;;;20.44;74.64;98371.44;5329096;26;19997;-60
2024/04/13 10:26:51;;;;;;;5.22;1.58;;;;;;;20.38;73.71;98373.47;5321207;26;20014;-59
2024/04/13 10:29:25;;;;;;;3.33;1.40;;;;;;;20.44;73.83;98375.03;5324805;26;20009;-59
2024/04/13 10:31:52;;;;;;;4.50;1.30;;;;;;;20.37;71.94;98367.13;5330526;26;20353;-61
2024/04/13 10:34:25;;;;;;;3.72;1.55;;;;;;;20.33;71.03;98365.25;5333669;26;20000;-59
2024/04/13 10:36:59;;;;;;;4.05;1.35;;;;;;;20.34;70.31;98362.22;5338552;26;20539;-60
2024/04/13 10:39:25;;;;;;;4.15;1.50;;;;;;;20.46;71.30;98367.31;5331905;26;20019;-61
2024/04/13 10:41:53;;;;;;;4.15;1.27;;;;;;;20.62;72.30;98358.88;5328824;26;20022;-59
2024/04/13 10:44:26;;;;;;;4.05;1.40;;;;;;;20.73;70.90;98359.56;5327690;26;20005;-60
2024/04/13 10:46:52;;;;;;;4.65;1.52;;;;;;;20.99;71.03;98354.56;5323141;26;20001;-60
2024/04/13 10:49:20;;;;;;;5.22;1.38;;;;;;;21.17;66.75;98352.94;5329070;26;20056;-60
2024/04/13 10:51:47;;;;;;;4.75;1.20;;;;;;;21.25;62.72;98351.44;5346265;26;20387;-59
2024/04/13 10:54:14;;;;;;;4.28;1.30;;;;;;;21.25;62.59;98351.44;5342289;26;20008;-60
2024/04/13 10:56:44;;;;;;;5.15;1.52;;;;;;;21.02;62.44;98348.47;5340172;26;20047;-60
2024/04/13 10:59:11;;;;;;;3.33;1.30;;;;;;;21.16;63.20;98340.25;5345286;26;20000;-59
2024/04/13 11:01:43;;;;;;;5.70;1.48;;;;;;;21.33;61.91;98338.91;5351127;26;20270;-60
2024/04/13 11:04:13;;;;;;;3.60;1.20;;;;;;;21.43;59.95;98338.75;5346706;26;20030;-59
2024/04/13 11:06:40;;;;;;;3.03;1.50;;;;;;;21.49;61.34;98344.19;5348932;26;19997;-60
2024/04/13 11:09:07;;;;;;;3.92;1.20;;;;;;;21.62;59.94;98340.66;5334967;26;20001;-59
2024/04/13 11:11:34;;;;;;;3.00;1.10;;;;;;;21.65;58.25;98334.53;5328317;26;20064;-61
2024/04/13 11:14:01;;;;;;;4.75;1.60;;;;;;;21.49;61.93;98327.66;5343358;26;19997;-59
2024/04/13 11:16:27;;;;;;;4.97;1.50;;;;;;;21.64;58.40;98332.88;5356002;26;20078;-60
2024/04/13 11:18:55;;;;;;;5.05;1.38;;;;;;;21.77;58.78;98331.31;5346274;26;20475;-60
2024/04/13 11:21:24;;;;;;;3.50;1.20;;;;;;;21.78;58.71;98323.88;5337996;26;20012;-59
2024/04/13 11:23:51;;;;;;;5.80;1.30;;;;;;;21.80;57.16;98322.47;5328717;26;20010;-61
2024/04/13 11:26:18;;;;;;;3.10;1.52;;;;;;;21.76;58.27;98310.41;5336313;26;20012;-58
2024/04/13 11:28:45;;;;;;;5.43;1.17;;;;;;;21.79;56.15;98312.56;5337335;26;20001;-60
2024/04/13 11:31:12;;;;;;;3.38;1.20;;;;;;;21.77;56.85;98305.69;5334692;26;20245;-60
2024/04/13 11:33:39;;;;;;;5.68;1.08;;;;;;;21.67;55.97;98298.41;5331491;26;20009;-60